createdAt,value
2018-08-23T00:01:29.475Z,19.60
2018-08-23T00:04:03.625Z,19.60
2018-08-23T00:06:32.735Z,19.50
2018-08-23T00:09:01.893Z,19.50
2018-08-23T00:11:32.955Z,19.40
2018-08-23T00:14:02.021Z,19.40
2018-08-23T00:16:36.712Z,19.30
2018-08-23T00:19:05.934Z,19.30
2018-08-23T00:21:40.474Z,19.20
2018-08-23T00:24:11.232Z,19.20
2018-08-23T00:26:49.368Z,19.20
2018-08-23T00:29:23.841Z,19.10
2018-08-23T00:31:55.115Z,19.10
2018-08-23T00:34:28.785Z,19.10
2018-08-23T00:36:58.297Z,19.00
2018-08-23T00:39:28.428Z,19.00
2018-08-23T00:42:02.906Z,18.90
2018-08-23T00:44:44.823Z,18.90
2018-08-23T00:47:14.014Z,18.90
2018-08-23T00:49:43.267Z,18.90
2018-08-23T00:52:12.523Z,18.80
2018-08-23T00:54:41.683Z,18.80
2018-08-23T00:57:10.917Z,18.70
2018-08-23T00:59:41.318Z,18.70
2018-08-23T01:02:11.953Z,18.70
2018-08-23T01:04:47.953Z,18.60
2018-08-23T01:07:24.851Z,18.60
2018-08-23T01:09:54.786Z,18.50
2018-08-23T01:12:24.920Z,18.40
2018-08-23T01:14:54.218Z,18.40
2018-08-23T01:17:23.834Z,18.30
2018-08-23T01:20:01.123Z,18.30
2018-08-23T01:22:31.024Z,18.20
2018-08-23T01:25:01.637Z,18.20
2018-08-23T01:27:36.467Z,18.10
2018-08-23T01:30:06.112Z,18.10
2018-08-23T01:32:35.422Z,18.10
2018-08-23T01:35:04.683Z,18.10
2018-08-23T01:37:37.585Z,18.10
2018-08-23T01:40:08.671Z,18.00
2018-08-23T01:42:39.749Z,18.00
2018-08-23T01:45:10.430Z,17.90
2018-08-23T01:47:45.443Z,17.80
2018-08-23T01:50:15.752Z,17.80
2018-08-23T01:52:48.960Z,17.80
2018-08-23T01:55:19.900Z,17.70
2018-08-23T01:57:50.115Z,17.70
2018-08-23T02:00:22.008Z,17.60
2018-08-23T02:02:51.558Z,17.60
2018-08-23T02:05:21.484Z,17.60
2018-08-23T02:07:51.095Z,17.50
2018-08-23T02:10:20.364Z,17.50
2018-08-23T02:12:52.957Z,17.40
2018-08-23T02:15:22.398Z,17.40
2018-08-23T02:17:57.878Z,17.40
2018-08-23T02:20:27.940Z,17.30
2018-08-23T02:22:57.417Z,17.30
2018-08-23T02:25:26.724Z,17.30
2018-08-23T02:28:00.558Z,17.20
2018-08-23T02:30:56.058Z,17.20
2018-08-23T02:33:26.094Z,17.20
2018-08-23T02:36:03.693Z,17.10
2018-08-23T02:38:33.446Z,17.10
2018-08-23T02:41:02.686Z,17.00
2018-08-23T02:43:32.122Z,17.00
2018-08-23T02:46:02.942Z,16.90
2018-08-23T02:48:31.949Z,16.90
2018-08-23T02:51:01.139Z,16.90
2018-08-23T02:53:34.535Z,16.80
2018-08-23T02:56:08.748Z,16.80
2018-08-23T02:58:50.748Z,16.70
2018-08-23T03:01:20.144Z,16.70
2018-08-23T03:04:02.021Z,16.70
2018-08-23T03:06:36.527Z,16.70
2018-08-23T03:09:07.189Z,16.70
2018-08-23T03:11:38.079Z,16.70
2018-08-23T03:14:07.396Z,16.70
2018-08-23T03:16:48.787Z,16.60
2018-08-23T03:19:18.050Z,16.60
2018-08-23T03:21:51.271Z,16.60
2018-08-23T03:24:20.808Z,16.50
2018-08-23T03:26:50.005Z,16.50
2018-08-23T03:29:19.211Z,16.50
2018-08-23T03:31:48.498Z,16.50
2018-08-23T03:34:17.666Z,16.50
2018-08-23T03:36:46.767Z,16.50
2018-08-23T03:39:15.854Z,16.50
2018-08-23T03:41:44.980Z,16.50
2018-08-23T03:44:24.768Z,16.50
2018-08-23T03:46:54.819Z,16.50
2018-08-23T03:49:32.680Z,16.40
2018-08-23T03:52:01.877Z,16.40
2018-08-23T03:54:31.362Z,16.30
2018-08-23T03:57:13.318Z,16.30
2018-08-23T03:59:44.267Z,16.20
2018-08-23T04:02:14.358Z,16.10
2018-08-23T04:04:44.854Z,16.10
2018-08-23T04:07:14.144Z,16.00
2018-08-23T04:09:43.931Z,16.00
2018-08-23T04:12:13.168Z,16.00
2018-08-23T04:14:42.210Z,15.90
2018-08-23T04:17:11.703Z,15.90
2018-08-23T04:19:49.669Z,15.90
2018-08-23T04:22:19.013Z,15.90
2018-08-23T04:24:54.499Z,15.90
2018-08-23T04:27:23.629Z,15.90
2018-08-23T04:29:52.803Z,15.90
2018-08-23T04:32:28.336Z,15.90
2018-08-23T04:34:59.566Z,15.90
2018-08-23T04:37:29.682Z,15.90
2018-08-23T04:40:05.109Z,15.90
2018-08-23T04:42:34.878Z,16.10
2018-08-23T04:45:33.166Z,16.40
2018-08-23T04:48:09.625Z,16.70
2018-08-23T04:50:39.889Z,17.20
2018-08-23T04:53:09.070Z,17.80
2018-08-23T04:55:38.269Z,18.40
2018-08-23T05:01:04.666Z,19.50
2018-08-23T05:03:34.303Z,20.10
2018-08-23T05:06:03.579Z,20.60
2018-08-23T05:08:32.868Z,21.20
2018-08-23T05:11:02.115Z,21.70
2018-08-23T05:13:31.485Z,22.30
2018-08-23T05:16:00.725Z,22.90
2018-08-23T05:18:30.037Z,23.50
2018-08-23T05:20:59.322Z,24.20
2018-08-23T05:23:28.610Z,24.80
2018-08-23T05:25:59.219Z,25.40
2018-08-23T05:28:28.407Z,26.00
2018-08-23T05:30:57.515Z,26.70
2018-08-23T05:33:26.888Z,27.30
2018-08-23T05:35:56.169Z,27.90
2018-08-23T05:38:26.104Z,28.50
2018-08-23T05:40:59.948Z,29.00
2018-08-23T05:43:29.094Z,29.40
2018-08-23T05:45:58.350Z,29.90
2018-08-23T05:48:30.709Z,30.40
2018-08-23T05:51:04.137Z,30.80
2018-08-23T05:53:33.702Z,31.20
2018-08-23T05:56:02.866Z,31.70
2018-08-23T05:58:33.124Z,32.10
2018-08-23T06:01:02.678Z,32.40
2018-08-23T06:03:31.874Z,32.80
2018-08-23T06:06:01.252Z,33.10
2018-08-23T06:08:31.466Z,33.30
2018-08-23T06:11:08.054Z,33.40
2018-08-23T06:13:37.219Z,33.60
2018-08-23T06:16:07.308Z,33.90
2018-08-23T06:18:36.467Z,34.20
2018-08-23T06:21:05.740Z,34.60
2018-08-23T06:23:57.016Z,34.70
2018-08-23T06:26:33.396Z,34.60
2018-08-23T06:29:02.743Z,34.60
2018-08-23T06:31:31.988Z,35.20
2018-08-23T06:34:01.181Z,35.80
2018-08-23T06:36:35.002Z,36.40
2018-08-23T06:39:05.200Z,37.10
2018-08-23T06:41:34.431Z,37.50
2018-08-23T06:44:03.507Z,38.10
2018-08-23T06:46:32.856Z,38.40
2018-08-23T06:49:02.104Z,38.90
2018-08-23T06:51:31.197Z,39.10
2018-08-23T06:54:01.145Z,39.20
2018-08-23T06:56:31.498Z,39.40
2018-08-23T06:59:01.031Z,39.80
2018-08-23T07:01:37.133Z,40.30
2018-08-23T07:04:09.293Z,40.80
2018-08-23T07:06:38.629Z,40.90
2018-08-23T07:09:11.010Z,41.00
2018-08-23T07:11:40.236Z,41.00
2018-08-23T07:14:12.096Z,41.30
2018-08-23T07:16:42.446Z,41.70
2018-08-23T07:19:24.223Z,41.90
2018-08-23T07:21:54.522Z,42.10
2018-08-23T07:24:37.573Z,42.20
2018-08-23T07:27:11.265Z,42.20
2018-08-23T07:29:40.490Z,42.50
2018-08-23T07:32:14.150Z,42.60
2018-08-23T07:34:57.639Z,42.50
2018-08-23T07:37:26.995Z,42.50
2018-08-23T07:40:01.554Z,42.80
2018-08-23T07:42:31.840Z,43.20
2018-08-23T07:45:01.383Z,43.50
2018-08-23T07:47:30.986Z,43.90
2018-08-23T07:50:01.411Z,44.50
2018-08-23T07:52:31.809Z,44.80
2018-08-23T07:55:03.517Z,44.80
2018-08-23T07:57:33.963Z,45.10
2018-08-23T08:00:13.063Z,45.60
2018-08-23T08:02:42.635Z,46.20
2018-08-23T08:05:11.816Z,46.40
2018-08-23T08:07:41.049Z,46.60
2018-08-23T08:10:14.622Z,46.40
2018-08-23T08:12:50.608Z,46.20
2018-08-23T08:15:19.968Z,46.40
2018-08-23T08:17:49.044Z,46.80
2018-08-23T08:20:18.197Z,47.30
2018-08-23T08:22:47.529Z,47.80
2018-08-23T08:25:19.046Z,48.10
2018-08-23T08:27:49.338Z,47.80
2018-08-23T08:30:24.317Z,48.00
2018-08-23T08:32:53.454Z,48.00
2018-08-23T08:35:22.664Z,48.10
2018-08-23T08:37:51.921Z,48.00
2018-08-23T08:40:24.445Z,48.30
2018-08-23T08:42:53.753Z,48.30
2018-08-23T08:45:26.235Z,48.40
2018-08-23T08:48:05.204Z,48.60
2018-08-23T08:50:38.998Z,48.70
2018-08-23T08:53:08.133Z,48.60
2018-08-23T08:58:33.970Z,48.60
2018-08-23T09:04:02.259Z,48.20
2018-08-23T09:10:54.659Z,48.60
2018-08-23T09:16:22.134Z,48.70
2018-08-23T09:19:00.560Z,48.20
2018-08-23T09:21:30.123Z,47.90
2018-08-23T09:26:56.856Z,48.60
2018-08-23T09:29:36.599Z,48.60
2018-08-23T09:32:11.628Z,48.90
2018-08-23T09:34:41.492Z,48.80
2018-08-23T09:37:11.061Z,48.00
2018-08-23T09:39:40.746Z,47.50
2018-08-23T09:47:00.857Z,46.50
2018-08-23T09:49:29.962Z,44.90
2018-08-23T09:51:59.319Z,43.60
2018-08-23T09:54:29.509Z,41.80
2018-08-23T09:56:58.766Z,41.70
2018-08-23T09:59:29.129Z,41.90
2018-08-23T10:02:03.859Z,42.10
2018-08-23T10:04:38.505Z,41.80
2018-08-23T10:07:13.158Z,41.70
2018-08-23T10:09:47.723Z,41.50
2018-08-23T10:12:22.320Z,41.30
2018-08-23T10:14:56.656Z,41.00
2018-08-23T10:17:31.163Z,40.90
2018-08-23T10:20:05.869Z,40.70
2018-08-23T10:22:40.277Z,40.90
2018-08-23T10:25:38.722Z,41.50
2018-08-23T10:28:10.761Z,42.30
2018-08-23T10:30:40.232Z,42.60
2018-08-23T10:33:09.541Z,43.00
2018-08-23T10:35:39.293Z,43.70
2018-08-23T10:38:08.599Z,44.10
2018-08-23T10:40:37.912Z,44.70
2018-08-23T10:43:07.148Z,45.10
2018-08-23T10:45:36.278Z,45.30
2018-08-23T10:48:11.309Z,45.10
2018-08-23T10:50:40.482Z,45.30
2018-08-23T10:53:09.878Z,45.20
2018-08-23T10:55:39.196Z,45.50
2018-08-23T10:58:08.377Z,45.60
2018-08-23T11:00:37.585Z,45.00
2018-08-23T11:03:06.917Z,43.80
2018-08-23T11:05:35.933Z,42.20
2018-08-23T11:08:10.555Z,41.00
2018-08-23T11:10:45.023Z,40.30
2018-08-23T11:13:19.524Z,40.30
2018-08-23T11:15:48.843Z,40.30
2018-08-23T11:18:23.114Z,40.60
2018-08-23T11:20:52.657Z,41.10
2018-08-23T11:23:25.472Z,41.20
2018-08-23T11:25:54.659Z,41.40
2018-08-23T11:28:24.992Z,41.80
2018-08-23T11:30:54.699Z,42.50
2018-08-23T11:33:23.931Z,43.60
2018-08-23T11:35:53.061Z,43.90
2018-08-23T11:38:22.245Z,44.30
2018-08-23T11:40:51.726Z,44.50
2018-08-23T11:43:20.977Z,44.60
2018-08-23T11:45:55.351Z,44.00
2018-08-23T11:48:24.691Z,43.50
2018-08-23T11:50:53.725Z,43.60
2018-08-23T11:53:23.252Z,43.60
2018-08-23T11:55:52.067Z,43.50
2018-08-23T11:58:21.166Z,43.10
2018-08-23T12:00:50.312Z,42.90
2018-08-23T12:03:19.521Z,42.80
2018-08-23T12:05:48.636Z,42.90
2018-08-23T12:08:17.804Z,43.00
2018-08-23T12:10:46.992Z,43.00
2018-08-23T12:13:16.068Z,42.90
2018-08-23T12:15:45.266Z,42.80
2018-08-23T12:18:14.523Z,42.60
2018-08-23T12:20:43.547Z,42.30
2018-08-23T12:23:12.577Z,42.20
2018-08-23T12:25:41.891Z,42.10
2018-08-23T12:28:16.425Z,41.60
2018-08-23T12:30:45.528Z,41.20
2018-08-23T12:33:14.779Z,41.20
2018-08-23T12:35:43.988Z,41.40
2018-08-23T12:38:20.592Z,41.50
2018-08-23T12:40:55.135Z,41.30
2018-08-23T12:43:29.819Z,40.90
2018-08-23T12:46:01.584Z,40.70
2018-08-23T12:48:30.762Z,40.70
2018-08-23T12:50:59.861Z,40.30
2018-08-23T12:53:30.209Z,40.10
2018-08-23T12:55:59.409Z,39.80
2018-08-23T12:58:28.548Z,39.80
2018-08-23T13:00:57.727Z,39.60
2018-08-23T13:03:27.139Z,39.30
2018-08-23T13:05:56.434Z,39.20
2018-08-23T13:08:25.832Z,39.10
2018-08-23T13:10:54.939Z,39.10
2018-08-23T13:13:24.197Z,39.10
2018-08-23T13:15:53.344Z,39.20
2018-08-23T13:18:22.544Z,39.30
2018-08-23T13:20:51.817Z,39.40
2018-08-23T13:23:21.171Z,39.30
2018-08-23T13:25:54.613Z,39.10
2018-08-23T13:28:24.260Z,38.70
2018-08-23T13:30:53.681Z,38.60
2018-08-23T13:33:23.540Z,38.50
2018-08-23T13:35:52.655Z,38.40
2018-08-23T13:38:21.728Z,38.30
2018-08-23T13:40:50.946Z,38.30
2018-08-23T13:43:20.001Z,38.10
2018-08-23T13:45:49.109Z,38.00
2018-08-23T13:48:18.459Z,37.70
2018-08-23T13:50:47.589Z,37.70
2018-08-23T13:53:16.748Z,37.70
2018-08-23T13:55:46.031Z,37.60
2018-08-23T13:58:15.357Z,37.60
2018-08-23T14:00:44.690Z,37.40
2018-08-23T14:03:13.886Z,37.20
2018-08-23T14:05:43.190Z,37.10
2018-08-23T14:08:12.302Z,37.00
2018-08-23T14:10:41.643Z,36.90
2018-08-23T14:13:11.147Z,36.70
2018-08-23T14:15:45.522Z,36.50
2018-08-23T14:18:14.758Z,36.50
2018-08-23T14:20:44.379Z,36.30
2018-08-23T14:23:13.520Z,36.30
2018-08-23T14:25:42.894Z,36.20
2018-08-23T14:28:12.738Z,36.10
2018-08-23T14:30:42.070Z,36.00
2018-08-23T14:33:11.304Z,35.90
2018-08-23T14:35:40.663Z,35.70
2018-08-23T14:38:10.001Z,35.70
2018-08-23T14:40:39.314Z,35.60
2018-08-23T14:43:08.700Z,35.60
2018-08-23T14:45:37.995Z,35.60
2018-08-23T14:48:12.410Z,35.50
2018-08-23T14:50:42.558Z,35.50
2018-08-23T14:53:11.818Z,35.40
2018-08-23T14:55:46.502Z,35.30
2018-08-23T14:58:15.828Z,35.30
2018-08-23T15:00:44.976Z,35.30
2018-08-23T15:03:14.158Z,35.10
2018-08-23T15:05:43.397Z,35.00
2018-08-23T15:08:12.551Z,34.90
2018-08-23T15:10:41.626Z,34.90
2018-08-23T15:13:10.642Z,34.80
2018-08-23T15:15:45.269Z,34.70
2018-08-23T15:18:14.322Z,34.70
2018-08-23T15:20:43.716Z,34.60
2018-08-23T15:23:12.838Z,34.50
2018-08-23T15:25:42.219Z,34.30
2018-08-23T15:28:11.561Z,34.10
2018-08-23T15:30:40.769Z,33.90
2018-08-23T15:33:10.205Z,33.80
2018-08-23T15:35:40.340Z,33.60
2018-08-23T15:38:09.494Z,33.70
2018-08-23T15:40:38.846Z,33.60
2018-08-23T15:43:08.022Z,33.50
2018-08-23T15:45:37.219Z,33.60
2018-08-23T15:48:06.399Z,33.60
2018-08-23T15:50:35.445Z,33.50
2018-08-23T15:53:04.803Z,33.40
2018-08-23T15:55:34.334Z,33.30
2018-08-23T15:58:03.193Z,33.20
2018-08-23T16:00:39.237Z,33.10
2018-08-23T16:03:08.725Z,32.90
2018-08-23T16:05:38.772Z,32.80
2018-08-23T16:08:07.967Z,32.70
2018-08-23T16:10:37.184Z,32.60
2018-08-23T16:13:06.535Z,32.50
2018-08-23T16:15:35.770Z,32.30
2018-08-23T16:18:10.235Z,32.30
2018-08-23T16:20:44.746Z,32.30
2018-08-23T16:23:15.078Z,32.30
2018-08-23T16:25:45.279Z,32.30
2018-08-23T16:28:14.485Z,32.30
2018-08-23T16:30:44.566Z,32.30
2018-08-23T16:33:13.930Z,32.20
2018-08-23T16:35:49.641Z,32.10
2018-08-23T16:38:19.092Z,32.00
2018-08-23T16:40:48.320Z,32.00
2018-08-23T16:43:17.758Z,31.90
2018-08-23T16:45:47.083Z,31.80
2018-08-23T16:48:16.295Z,31.70
2018-08-23T16:50:45.518Z,31.50
2018-08-23T16:53:15.387Z,31.30
2018-08-23T16:55:44.650Z,31.20
2018-08-23T16:58:14.727Z,31.00
2018-08-23T17:00:43.996Z,30.90
2018-08-23T17:03:13.289Z,30.80
2018-08-23T17:05:42.638Z,30.60
2018-08-23T17:08:12.433Z,30.50
2018-08-23T17:10:41.976Z,30.40
2018-08-23T17:13:16.560Z,30.40
2018-08-23T17:15:51.575Z,30.30
2018-08-23T17:18:21.187Z,30.20
2018-08-23T17:20:51.053Z,30.20
2018-08-23T17:23:20.605Z,30.10
2018-08-23T17:25:50.257Z,30.00
2018-08-23T17:28:20.028Z,30.00
2018-08-23T17:30:50.000Z,29.90
2018-08-23T17:33:19.845Z,29.90
2018-08-23T17:35:49.765Z,29.90
2018-08-23T17:38:19.139Z,29.80
2018-08-23T17:40:48.920Z,29.70
2018-08-23T17:43:18.352Z,29.50
2018-08-23T17:45:49.994Z,29.40
2018-08-23T17:48:20.409Z,29.20
2018-08-23T17:50:50.088Z,29.00
2018-08-23T17:53:19.600Z,28.80
2018-08-23T17:55:49.102Z,28.70
2018-08-23T17:58:19.029Z,28.50
2018-08-23T18:00:49.142Z,28.40
2018-08-23T18:03:19.604Z,28.20
2018-08-23T18:05:49.841Z,28.00
2018-08-23T18:08:20.103Z,27.90
2018-08-23T18:10:50.006Z,27.70
2018-08-23T18:13:20.047Z,27.50
2018-08-23T18:16:59.368Z,27.40
2018-08-23T18:19:29.883Z,27.20
2018-08-23T18:21:59.549Z,27.10
2018-08-23T18:24:29.621Z,26.90
2018-08-23T18:26:59.434Z,26.80
2018-08-23T18:29:29.237Z,26.60
2018-08-23T18:31:59.063Z,26.50
2018-08-23T18:34:28.744Z,26.30
2018-08-23T18:36:58.645Z,26.20
2018-08-23T18:39:29.230Z,26.20
2018-08-23T18:41:59.383Z,26.00
2018-08-23T18:44:28.956Z,25.90
2018-08-23T18:46:59.023Z,25.80
2018-08-23T18:49:28.721Z,25.70
2018-08-23T18:51:58.574Z,25.60
2018-08-23T18:54:28.239Z,25.50
2018-08-23T18:56:58.267Z,25.50
2018-08-23T18:59:28.616Z,25.40
2018-08-23T19:01:58.409Z,25.30
2018-08-23T19:04:28.793Z,25.20
2018-08-23T19:06:59.098Z,25.20
2018-08-23T19:09:29.619Z,25.10
2018-08-23T19:11:59.733Z,25.00
2018-08-23T19:14:29.913Z,25.00
2018-08-23T19:17:05.049Z,25.00
2018-08-23T19:19:36.023Z,24.90
2018-08-23T19:22:05.816Z,24.90
2018-08-23T19:24:35.469Z,24.80
2018-08-23T19:27:05.185Z,24.80
2018-08-23T19:29:34.860Z,24.80
2018-08-23T19:32:04.587Z,24.80
2018-08-23T19:34:34.580Z,24.70
2018-08-23T19:37:04.082Z,24.70
2018-08-23T19:39:33.960Z,24.70
2018-08-23T19:42:03.403Z,24.70
2018-08-23T19:44:32.676Z,24.70
2018-08-23T19:47:07.455Z,24.70
2018-08-23T19:49:42.507Z,24.70
2018-08-23T19:52:12.612Z,24.70
2018-08-23T19:54:42.494Z,24.70
2018-08-23T19:57:11.694Z,24.70
2018-08-23T19:59:41.335Z,24.70
2018-08-23T20:02:10.941Z,24.70
2018-08-23T20:04:41.115Z,24.60
2018-08-23T20:07:10.261Z,24.70
2018-08-23T20:09:39.779Z,24.60
2018-08-23T20:12:09.457Z,24.60
2018-08-23T20:14:38.988Z,24.70
2018-08-23T20:17:08.214Z,24.70
2018-08-23T20:19:37.363Z,24.70
2018-08-23T20:22:07.017Z,24.70
2018-08-23T20:24:36.434Z,24.60
2018-08-23T20:27:05.591Z,24.60
2018-08-23T20:29:35.014Z,24.50
2018-08-23T20:32:04.216Z,24.50
2018-08-23T20:34:33.518Z,24.40
2018-08-23T20:37:02.651Z,24.30
2018-08-23T20:39:31.774Z,24.20
2018-08-23T20:42:00.994Z,24.10
2018-08-23T20:44:30.068Z,24.00
2018-08-23T20:46:59.274Z,23.90
2018-08-23T20:49:28.496Z,23.80
2018-08-23T20:51:57.649Z,23.70
2018-08-23T20:54:26.949Z,23.70
2018-08-23T20:56:56.247Z,23.60
2018-08-23T20:59:25.315Z,23.50
2018-08-23T21:01:54.472Z,23.50
2018-08-23T21:04:23.776Z,23.40
2018-08-23T21:06:52.866Z,23.30
2018-08-23T21:09:22.091Z,23.30
2018-08-23T21:11:51.308Z,23.20
2018-08-23T21:14:20.489Z,23.10
2018-08-23T21:16:49.632Z,23.10
2018-08-23T21:19:18.802Z,23.00
2018-08-23T21:21:48.069Z,23.00
2018-08-23T21:24:17.484Z,22.90
2018-08-23T21:26:46.695Z,22.80
2018-08-23T21:29:15.939Z,22.70
2018-08-23T21:31:45.288Z,22.60
2018-08-23T21:34:14.449Z,22.60
2018-08-23T21:36:43.859Z,22.50
2018-08-23T21:39:12.943Z,22.50
2018-08-23T21:41:42.115Z,22.40
2018-08-23T21:44:11.404Z,22.40
2018-08-23T21:46:40.615Z,22.40
2018-08-23T21:49:09.812Z,22.40
2018-08-23T21:51:38.870Z,22.40
2018-08-23T21:54:08.011Z,22.40
2018-08-23T21:56:37.132Z,22.40
2018-08-23T21:59:06.345Z,22.40
2018-08-23T22:01:35.633Z,22.30
2018-08-23T22:04:04.908Z,22.20
2018-08-23T22:06:34.141Z,22.20
2018-08-23T22:09:03.525Z,22.10
2018-08-23T22:11:32.965Z,22.10
2018-08-23T22:14:02.287Z,22.00
2018-08-23T22:16:31.646Z,22.00
2018-08-23T22:19:00.791Z,21.90
2018-08-23T22:21:30.076Z,21.90
2018-08-23T22:23:59.463Z,21.80
2018-08-23T22:26:28.735Z,21.80
2018-08-23T22:28:58.030Z,21.70
2018-08-23T22:31:27.159Z,21.60
2018-08-23T22:33:56.373Z,21.60
2018-08-23T22:36:25.546Z,21.50
2018-08-23T22:38:54.744Z,21.50
2018-08-23T22:41:23.857Z,21.40
2018-08-23T22:43:52.998Z,21.40
2018-08-23T22:46:22.039Z,21.30
2018-08-23T22:48:51.080Z,21.30
2018-08-23T22:51:20.184Z,21.20
2018-08-23T22:53:49.372Z,21.20
2018-08-23T22:56:18.481Z,21.20
2018-08-23T22:58:47.625Z,21.10
2018-08-23T23:01:16.778Z,21.10
2018-08-23T23:03:51.124Z,21.10
2018-08-23T23:06:20.281Z,20.90
2018-08-23T23:08:49.526Z,20.90
2018-08-23T23:11:18.769Z,20.80
2018-08-23T23:13:47.863Z,20.80
2018-08-23T23:16:17.013Z,20.70
2018-08-23T23:18:46.130Z,20.60
2018-08-23T23:21:15.297Z,20.50
2018-08-23T23:23:44.491Z,20.50
2018-08-23T23:26:13.827Z,20.40
2018-08-23T23:28:43.031Z,20.40
2018-08-23T23:31:12.295Z,20.40
2018-08-23T23:33:41.391Z,20.30
2018-08-23T23:36:10.609Z,20.30
2018-08-23T23:38:39.952Z,20.30
2018-08-23T23:41:09.140Z,20.30
2018-08-23T23:43:38.429Z,20.30
2018-08-23T23:46:07.753Z,20.30
2018-08-23T23:48:36.936Z,20.30
2018-08-23T23:51:06.655Z,20.30
2018-08-23T23:53:35.923Z,20.40
2018-08-23T23:56:05.092Z,20.30
2018-08-23T23:58:34.299Z,20.30
